sensor_id;sensor_type;location;lat;lon;timestamp;temperature;humidity
9907;DHT22;4992;51.628;6.664;2023-01-05T00:01:25;11.10;99.90
9907;DHT22;4992;51.628;6.664;2023-01-05T00:03:51;11.10;99.90
9907;DHT22;4992;51.628;6.664;2023-01-05T00:06:17;11.10;99.90
9907;DHT22;4992;51.628;6.664;2023-01-05T00:08:43;11.00;99.90
9907;DHT22;4992;51.628;6.664;2023-01-05T00:11:28;11.10;99.90
9907;DHT22;4992;51.628;6.664;2023-01-05T00:14:21;11.00;99.90
9907;DHT22;4992;51.628;6.664;2023-01-05T00:17:10;11.00;99.90
9907;DHT22;4992;51.628;6.664;2023-01-05T00:19:55;11.00;99.90
9907;DHT22;4992;51.628;6.664;2023-01-05T00:22:48;10.90;99.90
9907;DHT22;4992;51.628;6.664;2023-01-05T00:25:23;10.90;99.90
9907;DHT22;4992;51.628;6.664;2023-01-05T00:27:50;10.80;99.90
9907;DHT22;4992;51.628;6.664;2023-01-05T00:30:18;10.80;99.90
9907;DHT22;4992;51.628;6.664;2023-01-05T00:32:44;10.80;99.90
9907;DHT22;4992;51.628;6.664;2023-01-05T00:35:11;10.80;99.90
9907;DHT22;4992;51.628;6.664;2023-01-05T00:37:38;10.80;99.90
9907;DHT22;4992;51.628;6.664;2023-01-05T00:40:05;10.70;99.90
9907;DHT22;4992;51.628;6.664;2023-01-05T00:42:31;10.70;99.90
9907;DHT22;4992;51.628;6.664;2023-01-05T00:44:56;10.70;99.90
9907;DHT22;4992;51.628;6.664;2023-01-05T00:47:22;10.70;99.90
9907;DHT22;4992;51.628;6.664;2023-01-05T00:49:48;10.70;99.90
9907;DHT22;4992;51.628;6.664;2023-01-05T00:52:13;10.70;99.90
9907;DHT22;4992;51.628;6.664;2023-01-05T00:54:39;10.70;99.90
9907;DHT22;4992;51.628;6.664;2023-01-05T00:57:04;10.70;99.90
9907;DHT22;4992;51.628;6.664;2023-01-05T00:59:31;10.70;99.90
9907;DHT22;4992;51.628;6.664;2023-01-05T01:01:57;10.70;99.90
9907;DHT22;4992;51.628;6.664;2023-01-05T01:04:22;10.70;99.90
9907;DHT22;4992;51.628;6.664;2023-01-05T01:06:48;10.70;99.90
9907;DHT22;4992;51.628;6.664;2023-01-05T01:09:14;10.70;99.90
9907;DHT22;4992;51.628;6.664;2023-01-05T01:11:40;10.70;99.90
9907;DHT22;4992;51.628;6.664;2023-01-05T01:14:07;10.70;99.90
9907;DHT22;4992;51.628;6.664;2023-01-05T01:16:33;10.70;99.90
9907;DHT22;4992;51.628;6.664;2023-01-05T01:18:59;10.70;99.90
9907;DHT22;4992;51.628;6.664;2023-01-05T01:21:24;10.70;99.90
9907;DHT22;4992;51.628;6.664;2023-01-05T01:23:50;10.70;99.90
9907;DHT22;4992;51.628;6.664;2023-01-05T01:26:15;10.70;99.90
9907;DHT22;4992;51.628;6.664;2023-01-05T01:28:41;10.70;99.90
9907;DHT22;4992;51.628;6.664;2023-01-05T01:31:07;10.70;99.90
9907;DHT22;4992;51.628;6.664;2023-01-05T01:33:38;10.70;99.90
9907;DHT22;4992;51.628;6.664;2023-01-05T01:36:05;10.70;99.90
9907;DHT22;4992;51.628;6.664;2023-01-05T01:38:31;10.70;99.90
9907;DHT22;4992;51.628;6.664;2023-01-05T01:40:56;10.70;99.90
9907;DHT22;4992;51.628;6.664;2023-01-05T01:43:45;10.70;99.90
9907;DHT22;4992;51.628;6.664;2023-01-05T01:46:12;10.70;99.90
9907;DHT22;4992;51.628;6.664;2023-01-05T01:48:41;10.70;99.90
9907;DHT22;4992;51.628;6.664;2023-01-05T01:51:28;10.70;99.90
9907;DHT22;4992;51.628;6.664;2023-01-05T01:53:57;10.70;99.90
9907;DHT22;4992;51.628;6.664;2023-01-05T01:56:25;10.70;99.90
9907;DHT22;4992;51.628;6.664;2023-01-05T01:58:51;10.80;99.90
9907;DHT22;4992;51.628;6.664;2023-01-05T02:01:17;10.70;99.90
9907;DHT22;4992;51.628;6.664;2023-01-05T02:03:43;10.70;99.90
9907;DHT22;4992;51.628;6.664;2023-01-05T02:06:10;10.70;99.90
9907;DHT22;4992;51.628;6.664;2023-01-05T02:08:35;10.70;99.90
9907;DHT22;4992;51.628;6.664;2023-01-05T02:14:02;10.70;99.90
9907;DHT22;4992;51.628;6.664;2023-01-05T02:16:53;10.70;99.90
9907;DHT22;4992;51.628;6.664;2023-01-05T02:19:51;10.70;99.90
9907;DHT22;4992;51.628;6.664;2023-01-05T02:27:54;10.70;99.90
9907;DHT22;4992;51.628;6.664;2023-01-05T02:30:59;10.70;99.90
9907;DHT22;4992;51.628;6.664;2023-01-05T02:33:57;10.70;99.90
9907;DHT22;4992;51.628;6.664;2023-01-05T02:41:44;10.70;99.90
9907;DHT22;4992;51.628;6.664;2023-01-05T02:44:17;10.70;99.90
9907;DHT22;4992;51.628;6.664;2023-01-05T02:46:44;10.70;99.90
9907;DHT22;4992;51.628;6.664;2023-01-05T02:49:12;10.70;99.90
9907;DHT22;4992;51.628;6.664;2023-01-05T02:51:45;10.70;99.90
9907;DHT22;4992;51.628;6.664;2023-01-05T02:54:20;10.70;99.90
9907;DHT22;4992;51.628;6.664;2023-01-05T02:56:58;10.70;99.90
9907;DHT22;4992;51.628;6.664;2023-01-05T02:59:49;10.70;99.90
9907;DHT22;4992;51.628;6.664;2023-01-05T03:02:24;10.70;99.90
9907;DHT22;4992;51.628;6.664;2023-01-05T03:05:10;10.80;99.90
9907;DHT22;4992;51.628;6.664;2023-01-05T03:07:39;10.70;99.90
9907;DHT22;4992;51.628;6.664;2023-01-05T03:10:06;10.70;99.90
9907;DHT22;4992;51.628;6.664;2023-01-05T03:12:52;10.70;99.90
9907;DHT22;4992;51.628;6.664;2023-01-05T03:15:39;10.70;99.90
9907;DHT22;4992;51.628;6.664;2023-01-05T03:18:15;10.70;99.90
9907;DHT22;4992;51.628;6.664;2023-01-05T03:20:46;10.60;99.90
9907;DHT22;4992;51.628;6.664;2023-01-05T03:23:15;10.70;99.90
9907;DHT22;4992;51.628;6.664;2023-01-05T03:26:00;10.60;99.90
9907;DHT22;4992;51.628;6.664;2023-01-05T03:28:58;10.60;99.90
9907;DHT22;4992;51.628;6.664;2023-01-05T03:32:00;10.70;99.90
9907;DHT22;4992;51.628;6.664;2023-01-05T03:34:54;10.60;99.90
9907;DHT22;4992;51.628;6.664;2023-01-05T03:37:49;10.60;99.90
9907;DHT22;4992;51.628;6.664;2023-01-05T03:40:24;10.60;99.90
9907;DHT22;4992;51.628;6.664;2023-01-05T03:42:51;10.60;99.90
9907;DHT22;4992;51.628;6.664;2023-01-05T03:45:17;10.50;99.90
9907;DHT22;4992;51.628;6.664;2023-01-05T03:47:43;10.50;99.90
9907;DHT22;4992;51.628;6.664;2023-01-05T03:50:09;10.50;99.90
9907;DHT22;4992;51.628;6.664;2023-01-05T03:52:35;10.40;99.90
9907;DHT22;4992;51.628;6.664;2023-01-05T03:55:00;10.40;99.90
9907;DHT22;4992;51.628;6.664;2023-01-05T03:57:26;10.30;99.90
9907;DHT22;4992;51.628;6.664;2023-01-05T03:59:51;10.30;99.90
9907;DHT22;4992;51.628;6.664;2023-01-05T04:02:17;10.20;99.90
9907;DHT22;4992;51.628;6.664;2023-01-05T04:04:42;10.20;99.90
9907;DHT22;4992;51.628;6.664;2023-01-05T04:07:08;10.10;99.90
9907;DHT22;4992;51.628;6.664;2023-01-05T04:09:33;10.00;99.90
9907;DHT22;4992;51.628;6.664;2023-01-05T04:11:59;10.00;99.90
9907;DHT22;4992;51.628;6.664;2023-01-05T04:14:25;10.00;99.90
9907;DHT22;4992;51.628;6.664;2023-01-05T04:16:50;10.00;99.90
9907;DHT22;4992;51.628;6.664;2023-01-05T04:19:16;10.00;99.90
9907;DHT22;4992;51.628;6.664;2023-01-05T04:21:42;9.90;99.90
9907;DHT22;4992;51.628;6.664;2023-01-05T04:24:10;9.90;99.90
9907;DHT22;4992;51.628;6.664;2023-01-05T04:26:36;9.90;99.90
9907;DHT22;4992;51.628;6.664;2023-01-05T04:29:04;9.90;99.90
9907;DHT22;4992;51.628;6.664;2023-01-05T04:31:30;9.80;99.90
9907;DHT22;4992;51.628;6.664;2023-01-05T04:33:56;9.90;99.90
9907;DHT22;4992;51.628;6.664;2023-01-05T04:36:21;9.80;99.90
9907;DHT22;4992;51.628;6.664;2023-01-05T04:38:47;9.80;99.90
9907;DHT22;4992;51.628;6.664;2023-01-05T04:41:12;9.80;99.90
9907;DHT22;4992;51.628;6.664;2023-01-05T04:43:38;9.80;99.90
9907;DHT22;4992;51.628;6.664;2023-01-05T04:46:04;9.80;99.90
9907;DHT22;4992;51.628;6.664;2023-01-05T04:48:30;9.80;99.90
9907;DHT22;4992;51.628;6.664;2023-01-05T04:50:56;9.80;99.90
9907;DHT22;4992;51.628;6.664;2023-01-05T04:53:22;9.80;99.90
9907;DHT22;4992;51.628;6.664;2023-01-05T04:55:47;9.90;99.90
9907;DHT22;4992;51.628;6.664;2023-01-05T04:58:13;9.80;99.90
9907;DHT22;4992;51.628;6.664;2023-01-05T05:00:38;9.90;99.90
9907;DHT22;4992;51.628;6.664;2023-01-05T05:03:04;9.80;99.90
9907;DHT22;4992;51.628;6.664;2023-01-05T05:05:30;9.90;99.90
9907;DHT22;4992;51.628;6.664;2023-01-05T05:07:55;9.80;99.90
9907;DHT22;4992;51.628;6.664;2023-01-05T05:10:21;9.80;99.90
9907;DHT22;4992;51.628;6.664;2023-01-05T05:12:46;9.80;99.90
9907;DHT22;4992;51.628;6.664;2023-01-05T05:15:12;9.80;99.90
9907;DHT22;4992;51.628;6.664;2023-01-05T05:17:37;9.80;99.90
9907;DHT22;4992;51.628;6.664;2023-01-05T05:20:03;9.80;99.90
9907;DHT22;4992;51.628;6.664;2023-01-05T05:22:30;9.80;99.90
9907;DHT22;4992;51.628;6.664;2023-01-05T05:24:55;9.80;99.90
9907;DHT22;4992;51.628;6.664;2023-01-05T05:27:21;9.70;99.90
9907;DHT22;4992;51.628;6.664;2023-01-05T05:29:46;9.70;99.90
9907;DHT22;4992;51.628;6.664;2023-01-05T05:32:12;9.70;99.90
9907;DHT22;4992;51.628;6.664;2023-01-05T05:34:38;9.70;99.90
9907;DHT22;4992;51.628;6.664;2023-01-05T05:37:03;9.70;99.90
9907;DHT22;4992;51.628;6.664;2023-01-05T05:39:29;9.70;99.90
9907;DHT22;4992;51.628;6.664;2023-01-05T05:41:54;9.70;99.90
9907;DHT22;4992;51.628;6.664;2023-01-05T05:44:20;9.70;99.90
9907;DHT22;4992;51.628;6.664;2023-01-05T05:46:45;9.70;99.90
9907;DHT22;4992;51.628;6.664;2023-01-05T05:49:11;9.70;99.90
9907;DHT22;4992;51.628;6.664;2023-01-05T05:51:36;9.70;99.90
9907;DHT22;4992;51.628;6.664;2023-01-05T05:54:02;9.70;99.90
9907;DHT22;4992;51.628;6.664;2023-01-05T05:56:28;9.70;99.90
9907;DHT22;4992;51.628;6.664;2023-01-05T05:58:54;9.60;99.90
9907;DHT22;4992;51.628;6.664;2023-01-05T06:01:19;9.70;99.90
9907;DHT22;4992;51.628;6.664;2023-01-05T06:03:45;9.60;99.90
9907;DHT22;4992;51.628;6.664;2023-01-05T06:06:10;9.70;99.90
9907;DHT22;4992;51.628;6.664;2023-01-05T06:08:36;9.60;99.90
9907;DHT22;4992;51.628;6.664;2023-01-05T06:11:01;9.70;99.90
9907;DHT22;4992;51.628;6.664;2023-01-05T06:13:27;9.60;99.90
9907;DHT22;4992;51.628;6.664;2023-01-05T06:15:52;9.60;99.90
9907;DHT22;4992;51.628;6.664;2023-01-05T06:18:18;9.60;99.90
9907;DHT22;4992;51.628;6.664;2023-01-05T06:20:44;9.60;99.90
9907;DHT22;4992;51.628;6.664;2023-01-05T06:23:10;9.60;99.90
9907;DHT22;4992;51.628;6.664;2023-01-05T06:25:35;9.60;99.90
9907;DHT22;4992;51.628;6.664;2023-01-05T06:28:01;9.70;99.90
9907;DHT22;4992;51.628;6.664;2023-01-05T06:30:27;9.70;99.90
9907;DHT22;4992;51.628;6.664;2023-01-05T06:32:53;9.60;99.90
9907;DHT22;4992;51.628;6.664;2023-01-05T06:35:18;9.70;99.90
9907;DHT22;4992;51.628;6.664;2023-01-05T06:37:43;9.70;99.90
9907;DHT22;4992;51.628;6.664;2023-01-05T06:40:09;9.70;99.90
9907;DHT22;4992;51.628;6.664;2023-01-05T06:42:37;9.70;99.90
9907;DHT22;4992;51.628;6.664;2023-01-05T06:45:03;9.70;99.90
9907;DHT22;4992;51.628;6.664;2023-01-05T06:47:29;9.80;99.90
9907;DHT22;4992;51.628;6.664;2023-01-05T06:49:54;9.70;99.90
9907;DHT22;4992;51.628;6.664;2023-01-05T06:52:20;9.70;99.90
9907;DHT22;4992;51.628;6.664;2023-01-05T06:54:46;9.70;99.90
9907;DHT22;4992;51.628;6.664;2023-01-05T06:57:11;9.70;99.90
9907;DHT22;4992;51.628;6.664;2023-01-05T06:59:37;9.80;99.90
9907;DHT22;4992;51.628;6.664;2023-01-05T07:02:02;9.70;99.90
9907;DHT22;4992;51.628;6.664;2023-01-05T07:04:28;9.70;99.90
9907;DHT22;4992;51.628;6.664;2023-01-05T07:06:53;9.70;99.90
9907;DHT22;4992;51.628;6.664;2023-01-05T07:09:19;9.70;99.90
9907;DHT22;4992;51.628;6.664;2023-01-05T07:11:44;9.70;99.90
9907;DHT22;4992;51.628;6.664;2023-01-05T07:14:10;9.70;99.90
9907;DHT22;4992;51.628;6.664;2023-01-05T07:16:35;9.70;99.90
9907;DHT22;4992;51.628;6.664;2023-01-05T07:19:01;9.70;99.90
9907;DHT22;4992;51.628;6.664;2023-01-05T07:21:26;9.70;99.90
9907;DHT22;4992;51.628;6.664;2023-01-05T07:23:52;9.70;99.90
9907;DHT22;4992;51.628;6.664;2023-01-05T07:26:18;9.70;99.90
9907;DHT22;4992;51.628;6.664;2023-01-05T07:28:44;9.70;99.90
9907;DHT22;4992;51.628;6.664;2023-01-05T07:31:09;9.70;99.90
9907;DHT22;4992;51.628;6.664;2023-01-05T07:33:35;9.70;99.90
9907;DHT22;4992;51.628;6.664;2023-01-05T07:36:02;9.70;99.90
9907;DHT22;4992;51.628;6.664;2023-01-05T07:38:28;9.70;99.90
9907;DHT22;4992;51.628;6.664;2023-01-05T07:40:58;9.70;99.90
9907;DHT22;4992;51.628;6.664;2023-01-05T07:43:24;9.70;99.90
9907;DHT22;4992;51.628;6.664;2023-01-05T07:45:49;9.70;99.90
9907;DHT22;4992;51.628;6.664;2023-01-05T07:48:14;9.60;99.90
9907;DHT22;4992;51.628;6.664;2023-01-05T07:50:40;9.60;99.90
9907;DHT22;4992;51.628;6.664;2023-01-05T07:53:05;9.70;99.90
9907;DHT22;4992;51.628;6.664;2023-01-05T07:55:31;9.60;99.90
9907;DHT22;4992;51.628;6.664;2023-01-05T07:57:56;9.60;99.90
9907;DHT22;4992;51.628;6.664;2023-01-05T08:00:22;9.70;99.90
9907;DHT22;4992;51.628;6.664;2023-01-05T08:02:48;9.70;99.90
9907;DHT22;4992;51.628;6.664;2023-01-05T08:05:13;9.70;99.90
9907;DHT22;4992;51.628;6.664;2023-01-05T08:07:39;9.70;99.90
9907;DHT22;4992;51.628;6.664;2023-01-05T08:10:04;9.70;99.90
9907;DHT22;4992;51.628;6.664;2023-01-05T08:12:49;9.70;99.90
9907;DHT22;4992;51.628;6.664;2023-01-05T08:15:54;9.70;99.90
9907;DHT22;4992;51.628;6.664;2023-01-05T08:18:20;9.70;99.90
9907;DHT22;4992;51.628;6.664;2023-01-05T08:20:57;9.70;99.90
9907;DHT22;4992;51.628;6.664;2023-01-05T08:23:24;9.70;99.90
9907;DHT22;4992;51.628;6.664;2023-01-05T08:25:51;9.80;99.90
9907;DHT22;4992;51.628;6.664;2023-01-05T08:28:16;9.80;99.90
9907;DHT22;4992;51.628;6.664;2023-01-05T08:30:42;9.80;99.90
9907;DHT22;4992;51.628;6.664;2023-01-05T08:33:08;9.80;99.90
9907;DHT22;4992;51.628;6.664;2023-01-05T08:35:33;9.80;99.90
9907;DHT22;4992;51.628;6.664;2023-01-05T08:37:59;9.90;99.90
9907;DHT22;4992;51.628;6.664;2023-01-05T08:40:24;9.90;99.90
9907;DHT22;4992;51.628;6.664;2023-01-05T08:42:50;9.90;99.90
9907;DHT22;4992;51.628;6.664;2023-01-05T08:45:17;9.90;99.90
9907;DHT22;4992;51.628;6.664;2023-01-05T08:47:43;9.90;99.90
9907;DHT22;4992;51.628;6.664;2023-01-05T08:50:10;9.90;99.90
9907;DHT22;4992;51.628;6.664;2023-01-05T08:52:37;9.90;99.90
9907;DHT22;4992;51.628;6.664;2023-01-05T08:55:03;9.90;99.90
9907;DHT22;4992;51.628;6.664;2023-01-05T08:57:30;9.90;99.90
9907;DHT22;4992;51.628;6.664;2023-01-05T08:59:55;10.00;99.90
9907;DHT22;4992;51.628;6.664;2023-01-05T09:02:21;10.00;99.90
9907;DHT22;4992;51.628;6.664;2023-01-05T09:04:47;10.00;99.90
9907;DHT22;4992;51.628;6.664;2023-01-05T09:07:12;10.00;99.90
9907;DHT22;4992;51.628;6.664;2023-01-05T09:09:38;10.00;99.90
9907;DHT22;4992;51.628;6.664;2023-01-05T09:12:04;10.00;99.90
9907;DHT22;4992;51.628;6.664;2023-01-05T09:14:29;10.10;99.90
9907;DHT22;4992;51.628;6.664;2023-01-05T09:16:55;10.10;99.90
9907;DHT22;4992;51.628;6.664;2023-01-05T09:19:21;10.10;99.90
9907;DHT22;4992;51.628;6.664;2023-01-05T09:21:47;10.10;99.90
9907;DHT22;4992;51.628;6.664;2023-01-05T09:24:12;10.10;99.90
9907;DHT22;4992;51.628;6.664;2023-01-05T09:26:39;10.10;99.90
9907;DHT22;4992;51.628;6.664;2023-01-05T09:29:05;10.20;99.90
9907;DHT22;4992;51.628;6.664;2023-01-05T09:31:30;10.10;99.90
9907;DHT22;4992;51.628;6.664;2023-01-05T09:33:57;10.20;99.90
9907;DHT22;4992;51.628;6.664;2023-01-05T09:36:23;10.20;99.90
9907;DHT22;4992;51.628;6.664;2023-01-05T09:38:51;10.20;99.90
9907;DHT22;4992;51.628;6.664;2023-01-05T09:41:24;10.20;99.90
9907;DHT22;4992;51.628;6.664;2023-01-05T09:43:59;10.20;99.90
9907;DHT22;4992;51.628;6.664;2023-01-05T09:46:31;10.20;99.90
9907;DHT22;4992;51.628;6.664;2023-01-05T09:49:00;10.30;99.90
9907;DHT22;4992;51.628;6.664;2023-01-05T09:51:26;10.20;99.90
9907;DHT22;4992;51.628;6.664;2023-01-05T09:53:53;10.20;99.90
9907;DHT22;4992;51.628;6.664;2023-01-05T09:58:52;10.30;99.90
9907;DHT22;4992;51.628;6.664;2023-01-05T10:01:20;10.30;99.90
9907;DHT22;4992;51.628;6.664;2023-01-05T10:06:20;10.30;99.90
9907;DHT22;4992;51.628;6.664;2023-01-05T10:08:48;10.30;99.90
9907;DHT22;4992;51.628;6.664;2023-01-05T10:11:40;10.30;99.90
9907;DHT22;4992;51.628;6.664;2023-01-05T10:14:37;10.40;99.90
9907;DHT22;4992;51.628;6.664;2023-01-05T10:17:09;10.40;99.90
9907;DHT22;4992;51.628;6.664;2023-01-05T10:19:36;10.30;99.90
9907;DHT22;4992;51.628;6.664;2023-01-05T10:25:13;10.40;99.90
9907;DHT22;4992;51.628;6.664;2023-01-05T10:27:47;10.40;99.90
9907;DHT22;4992;51.628;6.664;2023-01-05T10:30:41;10.40;99.90
9907;DHT22;4992;51.628;6.664;2023-01-05T10:36:26;10.50;99.90
9907;DHT22;4992;51.628;6.664;2023-01-05T10:41:35;10.60;99.90
9907;DHT22;4992;51.628;6.664;2023-01-05T10:47:11;10.70;99.90
9907;DHT22;4992;51.628;6.664;2023-01-05T10:49:39;10.80;99.90
9907;DHT22;4992;51.628;6.664;2023-01-05T10:52:12;10.80;99.90
9907;DHT22;4992;51.628;6.664;2023-01-05T10:54:44;10.80;99.90
9907;DHT22;4992;51.628;6.664;2023-01-05T11:02:52;11.00;99.90
9907;DHT22;4992;51.628;6.664;2023-01-05T11:05:35;11.00;99.90
9907;DHT22;4992;51.628;6.664;2023-01-05T11:08:04;11.10;99.90
9907;DHT22;4992;51.628;6.664;2023-01-05T11:10:35;11.10;99.90
9907;DHT22;4992;51.628;6.664;2023-01-05T11:13:27;11.10;99.90
9907;DHT22;4992;51.628;6.664;2023-01-05T11:15:56;11.20;99.90
9907;DHT22;4992;51.628;6.664;2023-01-05T11:21:27;11.30;99.90
9907;DHT22;4992;51.628;6.664;2023-01-05T11:24:33;11.30;99.90
9907;DHT22;4992;51.628;6.664;2023-01-05T11:27:22;11.40;99.90
9907;DHT22;4992;51.628;6.664;2023-01-05T11:32:41;11.40;99.90
9907;DHT22;4992;51.628;6.664;2023-01-05T11:35:17;11.40;99.90
9907;DHT22;4992;51.628;6.664;2023-01-05T11:37:44;11.40;99.90
9907;DHT22;4992;51.628;6.664;2023-01-05T11:40:15;11.30;99.90
9907;DHT22;4992;51.628;6.664;2023-01-05T11:42:41;11.30;99.90
9907;DHT22;4992;51.628;6.664;2023-01-05T11:45:20;11.30;99.90
9907;DHT22;4992;51.628;6.664;2023-01-05T11:47:57;11.30;99.90
9907;DHT22;4992;51.628;6.664;2023-01-05T11:50:25;11.30;99.90
9907;DHT22;4992;51.628;6.664;2023-01-05T11:52:59;11.40;99.90
9907;DHT22;4992;51.628;6.664;2023-01-05T11:55:27;11.40;99.90
9907;DHT22;4992;51.628;6.664;2023-01-05T12:01:05;11.40;99.90
9907;DHT22;4992;51.628;6.664;2023-01-05T12:09:04;11.40;99.90
9907;DHT22;4992;51.628;6.664;2023-01-05T12:11:52;11.50;99.90
9907;DHT22;4992;51.628;6.664;2023-01-05T12:15:00;11.50;99.90
9907;DHT22;4992;51.628;6.664;2023-01-05T12:17:47;11.50;99.90
9907;DHT22;4992;51.628;6.664;2023-01-05T12:26:03;11.50;99.90
9907;DHT22;4992;51.628;6.664;2023-01-05T12:31:26;11.50;99.90
9907;DHT22;4992;51.628;6.664;2023-01-05T12:39:30;11.50;99.90
9907;DHT22;4992;51.628;6.664;2023-01-05T12:44:50;11.60;99.90
9907;DHT22;4992;51.628;6.664;2023-01-05T12:47:50;11.60;99.90
9907;DHT22;4992;51.628;6.664;2023-01-05T12:50:38;11.70;99.90
9907;DHT22;4992;51.628;6.664;2023-01-05T12:56:23;11.90;99.90
9907;DHT22;4992;51.628;6.664;2023-01-05T12:59:08;12.00;99.90
9907;DHT22;4992;51.628;6.664;2023-01-05T13:01:41;12.00;99.90
9907;DHT22;4992;51.628;6.664;2023-01-05T13:07:04;12.00;99.90
9907;DHT22;4992;51.628;6.664;2023-01-05T13:09:31;11.90;99.90
9907;DHT22;4992;51.628;6.664;2023-01-05T13:12:02;11.80;99.90
9907;DHT22;4992;51.628;6.664;2023-01-05T13:14:33;11.80;99.90
9907;DHT22;4992;51.628;6.664;2023-01-05T13:17:16;11.90;99.90
9907;DHT22;4992;51.628;6.664;2023-01-05T13:19:49;11.80;99.90
9907;DHT22;4992;51.628;6.664;2023-01-05T13:22:32;11.80;99.90
9907;DHT22;4992;51.628;6.664;2023-01-05T13:25:18;11.90;99.90
9907;DHT22;4992;51.628;6.664;2023-01-05T13:27:44;11.90;99.90
9907;DHT22;4992;51.628;6.664;2023-01-05T13:30:22;12.00;99.90
9907;DHT22;4992;51.628;6.664;2023-01-05T13:35:44;12.30;99.90
9907;DHT22;4992;51.628;6.664;2023-01-05T13:46:57;12.30;99.90
9907;DHT22;4992;51.628;6.664;2023-01-05T13:49:49;12.20;99.90
9907;DHT22;4992;51.628;6.664;2023-01-05T13:54:55;12.00;99.90
9907;DHT22;4992;51.628;6.664;2023-01-05T13:57:29;11.90;99.90
9907;DHT22;4992;51.628;6.664;2023-01-05T14:00:02;11.90;99.90
9907;DHT22;4992;51.628;6.664;2023-01-05T14:02:35;11.90;99.90
9907;DHT22;4992;51.628;6.664;2023-01-05T14:05:13;11.80;99.90
9907;DHT22;4992;51.628;6.664;2023-01-05T14:07:40;11.90;99.90
9907;DHT22;4992;51.628;6.664;2023-01-05T14:10:19;12.00;99.90
9907;DHT22;4992;51.628;6.664;2023-01-05T14:12:48;12.00;99.90
9907;DHT22;4992;51.628;6.664;2023-01-05T14:22:57;11.90;99.90
9907;DHT22;4992;51.628;6.664;2023-01-05T14:33:47;11.60;99.90
9907;DHT22;4992;51.628;6.664;2023-01-05T14:36:33;11.50;99.90
9907;DHT22;4992;51.628;6.664;2023-01-05T14:39:05;11.40;99.90
9907;DHT22;4992;51.628;6.664;2023-01-05T14:41:32;11.40;99.90
9907;DHT22;4992;51.628;6.664;2023-01-05T14:44:04;11.30;99.90
9907;DHT22;4992;51.628;6.664;2023-01-05T14:49:21;11.20;99.90
9907;DHT22;4992;51.628;6.664;2023-01-05T14:51:55;11.20;99.90
9907;DHT22;4992;51.628;6.664;2023-01-05T14:59:46;11.00;99.90
9907;DHT22;4992;51.628;6.664;2023-01-05T15:02:20;11.00;99.90
9907;DHT22;4992;51.628;6.664;2023-01-05T15:04:50;11.00;99.90
9907;DHT22;4992;51.628;6.664;2023-01-05T15:13:21;10.90;99.90
9907;DHT22;4992;51.628;6.664;2023-01-05T15:16:01;10.90;99.90
9907;DHT22;4992;51.628;6.664;2023-01-05T15:32:35;10.70;99.90
9907;DHT22;4992;51.628;6.664;2023-01-05T15:35:20;10.70;99.90
9907;DHT22;4992;51.628;6.664;2023-01-05T15:37:52;10.70;99.90
9907;DHT22;4992;51.628;6.664;2023-01-05T15:42:48;10.70;99.90
9907;DHT22;4992;51.628;6.664;2023-01-05T15:45:33;10.70;99.90
9907;DHT22;4992;51.628;6.664;2023-01-05T15:48:05;10.60;99.90
9907;DHT22;4992;51.628;6.664;2023-01-05T15:50:43;10.60;99.90
9907;DHT22;4992;51.628;6.664;2023-01-05T15:56:01;10.60;99.90
9907;DHT22;4992;51.628;6.664;2023-01-05T15:58:30;10.60;99.90
9907;DHT22;4992;51.628;6.664;2023-01-05T16:01:06;10.50;99.90
9907;DHT22;4992;51.628;6.664;2023-01-05T16:03:34;10.50;99.90
9907;DHT22;4992;51.628;6.664;2023-01-05T16:06:09;10.50;99.90
9907;DHT22;4992;51.628;6.664;2023-01-05T16:08:41;10.40;99.90
9907;DHT22;4992;51.628;6.664;2023-01-05T16:11:09;10.30;99.90
9907;DHT22;4992;51.628;6.664;2023-01-05T16:13:49;10.30;99.90
9907;DHT22;4992;51.628;6.664;2023-01-05T16:17:04;10.30;99.90
9907;DHT22;4992;51.628;6.664;2023-01-05T16:19:29;10.30;99.90
9907;DHT22;4992;51.628;6.664;2023-01-05T16:22:50;10.20;99.90
9907;DHT22;4992;51.628;6.664;2023-01-05T16:27:48;10.20;99.90
9907;DHT22;4992;51.628;6.664;2023-01-05T16:33:03;10.20;99.90
9907;DHT22;4992;51.628;6.664;2023-01-05T16:35:46;10.20;99.90
9907;DHT22;4992;51.628;6.664;2023-01-05T16:38:25;10.20;99.90
9907;DHT22;4992;51.628;6.664;2023-01-05T16:43:26;10.20;99.90
9907;DHT22;4992;51.628;6.664;2023-01-05T16:45:55;10.20;99.90
9907;DHT22;4992;51.628;6.664;2023-01-05T16:51:04;10.10;99.90
9907;DHT22;4992;51.628;6.664;2023-01-05T16:53:30;10.10;99.90
9907;DHT22;4992;51.628;6.664;2023-01-05T16:55:57;10.10;99.90
9907;DHT22;4992;51.628;6.664;2023-01-05T17:03:42;10.10;99.90
9907;DHT22;4992;51.628;6.664;2023-01-05T17:06:29;10.10;99.90
9907;DHT22;4992;51.628;6.664;2023-01-05T17:08:58;10.10;99.90
9907;DHT22;4992;51.628;6.664;2023-01-05T17:11:33;10.10;99.90
9907;DHT22;4992;51.628;6.664;2023-01-05T17:13:59;10.10;99.90
9907;DHT22;4992;51.628;6.664;2023-01-05T17:16:26;10.10;99.90
9907;DHT22;4992;51.628;6.664;2023-01-05T17:18:52;10.10;99.90
9907;DHT22;4992;51.628;6.664;2023-01-05T17:21:20;10.00;99.90
9907;DHT22;4992;51.628;6.664;2023-01-05T17:23:51;10.00;99.90
9907;DHT22;4992;51.628;6.664;2023-01-05T17:26:27;10.00;99.90
9907;DHT22;4992;51.628;6.664;2023-01-05T17:28:56;10.10;99.90
9907;DHT22;4992;51.628;6.664;2023-01-05T17:31:22;10.00;99.90
9907;DHT22;4992;51.628;6.664;2023-01-05T17:33:48;10.10;99.90
9907;DHT22;4992;51.628;6.664;2023-01-05T17:36:13;10.10;99.90
9907;DHT22;4992;51.628;6.664;2023-01-05T17:38:39;10.00;99.90
9907;DHT22;4992;51.628;6.664;2023-01-05T17:41:05;10.00;99.90
9907;DHT22;4992;51.628;6.664;2023-01-05T17:43:30;10.00;99.90
9907;DHT22;4992;51.628;6.664;2023-01-05T17:45:56;10.00;99.90
9907;DHT22;4992;51.628;6.664;2023-01-05T17:48:22;10.00;99.90
9907;DHT22;4992;51.628;6.664;2023-01-05T17:50:48;10.00;99.90
9907;DHT22;4992;51.628;6.664;2023-01-05T17:53:13;10.00;99.90
9907;DHT22;4992;51.628;6.664;2023-01-05T17:55:40;9.90;99.90
9907;DHT22;4992;51.628;6.664;2023-01-05T17:58:05;9.90;99.90
9907;DHT22;4992;51.628;6.664;2023-01-05T18:00:33;9.90;99.90
9907;DHT22;4992;51.628;6.664;2023-01-05T18:02:59;9.90;99.90
9907;DHT22;4992;51.628;6.664;2023-01-05T18:05:25;9.90;99.90
9907;DHT22;4992;51.628;6.664;2023-01-05T18:07:51;9.90;99.90
9907;DHT22;4992;51.628;6.664;2023-01-05T18:10:19;10.00;99.90
9907;DHT22;4992;51.628;6.664;2023-01-05T18:12:45;10.00;99.90
9907;DHT22;4992;51.628;6.664;2023-01-05T18:15:12;10.00;99.90
9907;DHT22;4992;51.628;6.664;2023-01-05T18:17:38;9.90;99.90
9907;DHT22;4992;51.628;6.664;2023-01-05T18:20:05;9.90;99.90
9907;DHT22;4992;51.628;6.664;2023-01-05T18:22:30;9.90;99.90
9907;DHT22;4992;51.628;6.664;2023-01-05T18:24:56;10.00;99.90
9907;DHT22;4992;51.628;6.664;2023-01-05T18:27:21;10.00;99.90
9907;DHT22;4992;51.628;6.664;2023-01-05T18:29:47;10.00;99.90
9907;DHT22;4992;51.628;6.664;2023-01-05T18:32:13;10.00;99.90
9907;DHT22;4992;51.628;6.664;2023-01-05T18:34:38;10.00;99.90
9907;DHT22;4992;51.628;6.664;2023-01-05T18:37:04;10.00;99.90
9907;DHT22;4992;51.628;6.664;2023-01-05T18:39:30;10.00;99.90
9907;DHT22;4992;51.628;6.664;2023-01-05T18:41:56;10.10;99.90
9907;DHT22;4992;51.628;6.664;2023-01-05T18:44:22;10.10;99.90
9907;DHT22;4992;51.628;6.664;2023-01-05T18:46:47;10.10;99.90
9907;DHT22;4992;51.628;6.664;2023-01-05T18:49:14;10.00;99.90
9907;DHT22;4992;51.628;6.664;2023-01-05T18:51:40;10.00;99.90
9907;DHT22;4992;51.628;6.664;2023-01-05T18:54:06;10.00;99.90
9907;DHT22;4992;51.628;6.664;2023-01-05T18:56:32;10.00;99.90
9907;DHT22;4992;51.628;6.664;2023-01-05T18:58:58;10.00;99.90
9907;DHT22;4992;51.628;6.664;2023-01-05T19:01:24;10.00;99.90